X  Blizu METAR Podaci o vazduhoplovstvu     EHAM Amsterdam Airport Schiphol
Temperatura
10°C Temperatura
8°C Tačka Rose
88% Vlaga



Vetar
23 MPS
37 KM/S
10 M/S
20 Čvorovi



230°
JZ
Trenutna situacija

Delimično oblačno Delimično oblačno
Vazdušni pritisak 1022.01 (hPa) - 30.18 (inHg)
Vidljivost 6 (Milje) - 9.7 (km)
Aerodrom
Aerodromski kod. EHAM

Lokacija: Amsterdam Airport Schiphol
Udaljenost: 26 (mi)

Metar:
EHAM 202055Z 23020KT 9999 FEW009 SCT012 BKN014 10/08 Q1022 NOSIG

Vreme: 20-02-2024 21:55 CET